Main page
METAR-TAF:

METAR-TAF

Airports :

Mallam Aminu Kano International Airport

Kano, Nigeria

latitude: 12-03N, longitude: 008-32E, elevation: 476 m

Current weather observation

The report was made 1 hour and 0 minutes ago, at 13:00 UTC
Wind 10 kt from the East
Temperature 35°C
Humidity 12%
Pressure 1014 hPa
Visibility: 8000 m

METAR: DNKN 281300Z 08010KT 8000 35/01 Q1014 NOSIG

Time: 15:00 (14:00 UTC)

Forecast

The report was made 3 hours and 0 minutes ago, at 11:00 UTC
Forecast valid from 28 at 12 UTC to 29 at 18 UTC
Wind 10 kt from the East
Visibility: 6000 m
Becoming
from 28 at 14 UTC to 28 at 20 UTC
Visibility 10 km or more
no clouds below 1500 m and no cumulonimbus
Temporary
from 29 at 07 UTC to 29 at 11 UTC
Visibility: 5000 m
haze

TAF: DNKN 281100Z 2812/2918 08010KT 6000 NSC NSW BECMG 2814/2820 CAVOK TEMPO 2907/2911 5000 HZ

Weather observations and forecasts of more than 4000 airports (METAR and TAF reports).

The available stations are represented by yellow and red dots on the map.

Hover mouse over dot to see the name of the station.

Then click to see weather observations and forecasts.

To change the map : click on the green buttons with a black cross to zoom in, on the green button with a dash to zoom out, or on the green arrows for adjacent maps.


METAR-TAF: